sensor_id;sensor_type;location;lat;lon;timestamp;temperature;humidity
1055;DHT22;516;51.482;7.120;2024-03-23T00:52:14;24.30;1.00
1055;DHT22;516;51.482;7.120;2024-03-23T00:54:39;24.30;1.00
1055;DHT22;516;51.482;7.120;2024-03-23T00:57:05;24.30;1.00
1055;DHT22;516;51.482;7.120;2024-03-23T00:59:31;24.30;1.00
1055;DHT22;516;51.482;7.120;2024-03-23T01:01:57;24.20;1.00
1055;DHT22;516;51.482;7.120;2024-03-23T01:04:22;24.20;1.00
1055;DHT22;516;51.482;7.120;2024-03-23T01:06:48;24.20;1.00
1055;DHT22;516;51.482;7.120;2024-03-23T01:09:14;24.20;1.00
1055;DHT22;516;51.482;7.120;2024-03-23T01:11:40;24.20;1.00
1055;DHT22;516;51.482;7.120;2024-03-23T01:14:06;24.10;1.00
1055;DHT22;516;51.482;7.120;2024-03-23T01:16:32;24.10;1.00
1055;DHT22;516;51.482;7.120;2024-03-23T01:18:58;24.10;1.00
1055;DHT22;516;51.482;7.120;2024-03-23T01:21:24;24.10;1.00
1055;DHT22;516;51.482;7.120;2024-03-23T01:23:49;24.10;1.00
1055;DHT22;516;51.482;7.120;2024-03-23T01:26:16;24.10;1.00
1055;DHT22;516;51.482;7.120;2024-03-23T01:28:41;24.10;1.00
1055;DHT22;516;51.482;7.120;2024-03-23T01:31:07;24.00;1.00
1055;DHT22;516;51.482;7.120;2024-03-23T01:33:33;24.00;1.00
1055;DHT22;516;51.482;7.120;2024-03-23T01:35:59;24.00;1.00
1055;DHT22;516;51.482;7.120;2024-03-23T01:38:24;24.00;1.00
1055;DHT22;516;51.482;7.120;2024-03-23T01:40:56;24.10;1.00
1055;DHT22;516;51.482;7.120;2024-03-23T01:43:22;24.00;1.00
1055;DHT22;516;51.482;7.120;2024-03-23T01:45:48;24.00;1.00
1055;DHT22;516;51.482;7.120;2024-03-23T01:48:14;24.00;1.00
1055;DHT22;516;51.482;7.120;2024-03-23T01:50:40;24.00;1.00
1055;DHT22;516;51.482;7.120;2024-03-23T01:53:06;24.00;1.00
1055;DHT22;516;51.482;7.120;2024-03-23T01:55:35;24.00;1.00
1055;DHT22;516;51.482;7.120;2024-03-23T01:58:01;23.90;1.00
1055;DHT22;516;51.482;7.120;2024-03-23T02:00:27;23.90;1.00
1055;DHT22;516;51.482;7.120;2024-03-23T02:02:53;23.80;1.00
1055;DHT22;516;51.482;7.120;2024-03-23T02:05:20;23.80;1.00
1055;DHT22;516;51.482;7.120;2024-03-23T02:07:46;23.80;1.00
1055;DHT22;516;51.482;7.120;2024-03-23T02:10:11;23.80;1.00
1055;DHT22;516;51.482;7.120;2024-03-23T02:12:40;23.80;1.00
1055;DHT22;516;51.482;7.120;2024-03-23T02:15:06;23.80;1.00
1055;DHT22;516;51.482;7.120;2024-03-23T02:17:34;23.80;1.00
1055;DHT22;516;51.482;7.120;2024-03-23T02:20:01;23.70;1.00
1055;DHT22;516;51.482;7.120;2024-03-23T02:22:37;23.80;1.00
1055;DHT22;516;51.482;7.120;2024-03-23T02:25:04;23.70;1.00
1055;DHT22;516;51.482;7.120;2024-03-23T02:27:30;23.70;1.00
1055;DHT22;516;51.482;7.120;2024-03-23T02:29:55;23.70;1.00
1055;DHT22;516;51.482;7.120;2024-03-23T02:32:21;23.70;1.00
1055;DHT22;516;51.482;7.120;2024-03-23T02:34:47;23.70;1.00
1055;DHT22;516;51.482;7.120;2024-03-23T02:37:13;23.70;1.00
1055;DHT22;516;51.482;7.120;2024-03-23T02:39:38;23.70;1.00
1055;DHT22;516;51.482;7.120;2024-03-23T02:42:04;23.70;1.00
1055;DHT22;516;51.482;7.120;2024-03-23T02:44:30;23.70;1.00
1055;DHT22;516;51.482;7.120;2024-03-23T02:46:56;23.60;1.00
1055;DHT22;516;51.482;7.120;2024-03-23T02:49:21;23.60;1.00
1055;DHT22;516;51.482;7.120;2024-03-23T02:51:47;23.60;1.00
1055;DHT22;516;51.482;7.120;2024-03-23T02:54:14;23.70;1.00
1055;DHT22;516;51.482;7.120;2024-03-23T02:56:40;23.60;1.00
1055;DHT22;516;51.482;7.120;2024-03-23T02:59:06;23.60;1.00
1055;DHT22;516;51.482;7.120;2024-03-23T03:01:32;23.60;1.00
1055;DHT22;516;51.482;7.120;2024-03-23T03:03:57;23.60;1.00
1055;DHT22;516;51.482;7.120;2024-03-23T03:06:25;23.60;1.00
1055;DHT22;516;51.482;7.120;2024-03-23T03:08:50;23.60;1.00
1055;DHT22;516;51.482;7.120;2024-03-23T03:11:16;23.60;1.00
1055;DHT22;516;51.482;7.120;2024-03-23T03:13:42;23.60;1.00
1055;DHT22;516;51.482;7.120;2024-03-23T03:16:12;23.60;1.00
1055;DHT22;516;51.482;7.120;2024-03-23T03:18:38;23.60;1.00
1055;DHT22;516;51.482;7.120;2024-03-23T03:21:05;23.50;1.00
1055;DHT22;516;51.482;7.120;2024-03-23T03:23:38;23.50;1.00
1055;DHT22;516;51.482;7.120;2024-03-23T03:26:07;23.50;1.00
1055;DHT22;516;51.482;7.120;2024-03-23T03:28:34;23.50;1.00
1055;DHT22;516;51.482;7.120;2024-03-23T03:31:00;23.50;1.00
1055;DHT22;516;51.482;7.120;2024-03-23T03:33:29;23.50;1.00
1055;DHT22;516;51.482;7.120;2024-03-23T03:35:55;23.50;1.00
1055;DHT22;516;51.482;7.120;2024-03-23T03:38:21;23.50;1.00
1055;DHT22;516;51.482;7.120;2024-03-23T03:40:47;23.50;1.00
1055;DHT22;516;51.482;7.120;2024-03-23T03:43:13;23.50;1.00
1055;DHT22;516;51.482;7.120;2024-03-23T03:45:38;23.50;1.00
1055;DHT22;516;51.482;7.120;2024-03-23T03:48:04;23.50;1.00
1055;DHT22;516;51.482;7.120;2024-03-23T03:50:30;23.50;1.00
1055;DHT22;516;51.482;7.120;2024-03-23T03:52:56;23.50;1.00
1055;DHT22;516;51.482;7.120;2024-03-23T03:55:22;23.50;1.00
1055;DHT22;516;51.482;7.120;2024-03-23T03:57:47;23.40;1.00
1055;DHT22;516;51.482;7.120;2024-03-23T04:00:13;23.40;1.00
1055;DHT22;516;51.482;7.120;2024-03-23T04:02:39;23.50;1.00
1055;DHT22;516;51.482;7.120;2024-03-23T04:05:05;23.40;1.00
1055;DHT22;516;51.482;7.120;2024-03-23T04:07:32;23.40;1.00
1055;DHT22;516;51.482;7.120;2024-03-23T04:09:57;23.40;1.00
1055;DHT22;516;51.482;7.120;2024-03-23T04:12:23;23.40;1.00
1055;DHT22;516;51.482;7.120;2024-03-23T04:14:49;23.40;1.00
1055;DHT22;516;51.482;7.120;2024-03-23T04:17:15;23.40;1.00
1055;DHT22;516;51.482;7.120;2024-03-23T04:19:41;23.40;1.00
1055;DHT22;516;51.482;7.120;2024-03-23T04:22:07;23.40;1.00
1055;DHT22;516;51.482;7.120;2024-03-23T04:24:33;23.40;1.00
1055;DHT22;516;51.482;7.120;2024-03-23T04:26:59;23.40;1.00
1055;DHT22;516;51.482;7.120;2024-03-23T04:29:25;23.40;1.00
1055;DHT22;516;51.482;7.120;2024-03-23T04:31:52;23.40;1.00
1055;DHT22;516;51.482;7.120;2024-03-23T04:34:18;23.30;1.00
1055;DHT22;516;51.482;7.120;2024-03-23T04:36:44;23.30;1.00
1055;DHT22;516;51.482;7.120;2024-03-23T04:39:10;23.30;1.00
1055;DHT22;516;51.482;7.120;2024-03-23T04:41:35;23.30;1.00
1055;DHT22;516;51.482;7.120;2024-03-23T04:44:01;23.30;1.00
1055;DHT22;516;51.482;7.120;2024-03-23T04:46:27;23.30;1.00
1055;DHT22;516;51.482;7.120;2024-03-23T04:48:53;23.30;1.00
1055;DHT22;516;51.482;7.120;2024-03-23T04:51:22;23.30;1.00
1055;DHT22;516;51.482;7.120;2024-03-23T04:53:48;23.30;1.00
1055;DHT22;516;51.482;7.120;2024-03-23T04:56:17;23.30;1.00
1055;DHT22;516;51.482;7.120;2024-03-23T04:58:44;23.20;1.00
1055;DHT22;516;51.482;7.120;2024-03-23T05:01:10;23.20;1.00
1055;DHT22;516;51.482;7.120;2024-03-23T05:03:36;23.20;1.00
1055;DHT22;516;51.482;7.120;2024-03-23T05:06:02;23.20;1.00
1055;DHT22;516;51.482;7.120;2024-03-23T05:08:27;23.20;1.00
1055;DHT22;516;51.482;7.120;2024-03-23T05:10:53;23.30;1.00
1055;DHT22;516;51.482;7.120;2024-03-23T05:13:19;23.30;1.00
1055;DHT22;516;51.482;7.120;2024-03-23T05:15:50;23.30;1.00
1055;DHT22;516;51.482;7.120;2024-03-23T05:18:16;23.30;1.00
1055;DHT22;516;51.482;7.120;2024-03-23T05:20:41;23.30;1.00
1055;DHT22;516;51.482;7.120;2024-03-23T05:23:07;23.20;1.00
1055;DHT22;516;51.482;7.120;2024-03-23T05:25:33;23.20;1.00
1055;DHT22;516;51.482;7.120;2024-03-23T05:27:59;23.20;1.00
1055;DHT22;516;51.482;7.120;2024-03-23T05:30:25;23.30;1.00
1055;DHT22;516;51.482;7.120;2024-03-23T05:32:50;23.20;1.00
1055;DHT22;516;51.482;7.120;2024-03-23T05:35:16;23.30;1.00
1055;DHT22;516;51.482;7.120;2024-03-23T05:37:42;23.30;1.00
1055;DHT22;516;51.482;7.120;2024-03-23T05:40:07;23.20;1.00
1055;DHT22;516;51.482;7.120;2024-03-23T05:42:34;23.20;1.00
1055;DHT22;516;51.482;7.120;2024-03-23T05:45:00;23.20;1.00
1055;DHT22;516;51.482;7.120;2024-03-23T05:47:26;23.20;1.00
1055;DHT22;516;51.482;7.120;2024-03-23T05:49:51;23.20;1.00
1055;DHT22;516;51.482;7.120;2024-03-23T05:52:17;23.20;1.00
1055;DHT22;516;51.482;7.120;2024-03-23T05:54:43;23.20;1.00
1055;DHT22;516;51.482;7.120;2024-03-23T05:57:09;23.20;1.00
1055;DHT22;516;51.482;7.120;2024-03-23T05:59:35;23.20;1.00
1055;DHT22;516;51.482;7.120;2024-03-23T06:02:00;23.20;1.00
1055;DHT22;516;51.482;7.120;2024-03-23T06:04:26;23.20;1.00
1055;DHT22;516;51.482;7.120;2024-03-23T06:06:52;23.20;1.00
1055;DHT22;516;51.482;7.120;2024-03-23T06:09:18;23.20;1.00
1055;DHT22;516;51.482;7.120;2024-03-23T06:11:45;23.20;1.00
1055;DHT22;516;51.482;7.120;2024-03-23T06:14:10;23.20;1.00
1055;DHT22;516;51.482;7.120;2024-03-23T06:16:36;23.20;1.00
1055;DHT22;516;51.482;7.120;2024-03-23T06:19:02;23.20;1.00
1055;DHT22;516;51.482;7.120;2024-03-23T06:21:29;23.20;1.00
1055;DHT22;516;51.482;7.120;2024-03-23T06:23:58;23.20;1.00
1055;DHT22;516;51.482;7.120;2024-03-23T06:26:24;23.20;1.00
1055;DHT22;516;51.482;7.120;2024-03-23T06:28:49;23.20;1.00
1055;DHT22;516;51.482;7.120;2024-03-23T06:31:15;23.20;1.00
1055;DHT22;516;51.482;7.120;2024-03-23T06:33:41;23.20;1.00
1055;DHT22;516;51.482;7.120;2024-03-23T06:36:09;23.30;1.00
1055;DHT22;516;51.482;7.120;2024-03-23T06:38:36;23.20;1.00
1055;DHT22;516;51.482;7.120;2024-03-23T06:41:05;23.30;1.00
1055;DHT22;516;51.482;7.120;2024-03-23T06:43:31;23.50;1.00
1055;DHT22;516;51.482;7.120;2024-03-23T06:45:56;23.80;1.00
1055;DHT22;516;51.482;7.120;2024-03-23T06:48:22;24.00;1.00
1055;DHT22;516;51.482;7.120;2024-03-23T06:50:48;24.10;1.00
1055;DHT22;516;51.482;7.120;2024-03-23T06:53:14;24.20;1.00
1055;DHT22;516;51.482;7.120;2024-03-23T06:55:40;24.20;1.00
1055;DHT22;516;51.482;7.120;2024-03-23T06:58:06;24.30;1.00
1055;DHT22;516;51.482;7.120;2024-03-23T07:00:32;24.30;1.00
1055;DHT22;516;51.482;7.120;2024-03-23T07:02:59;24.40;1.00
1055;DHT22;516;51.482;7.120;2024-03-23T07:05:24;24.50;1.00
1055;DHT22;516;51.482;7.120;2024-03-23T07:07:50;24.40;1.00
1055;DHT22;516;51.482;7.120;2024-03-23T07:10:16;24.50;1.00
1055;DHT22;516;51.482;7.120;2024-03-23T07:12:42;24.50;1.00
1055;DHT22;516;51.482;7.120;2024-03-23T07:15:08;24.50;1.00
1055;DHT22;516;51.482;7.120;2024-03-23T07:17:34;24.40;1.00
1055;DHT22;516;51.482;7.120;2024-03-23T07:20:03;24.30;1.00
1055;DHT22;516;51.482;7.120;2024-03-23T07:22:30;24.10;1.00
1055;DHT22;516;51.482;7.120;2024-03-23T07:24:59;23.90;1.00
1055;DHT22;516;51.482;7.120;2024-03-23T07:27:25;23.90;1.00
1055;DHT22;516;51.482;7.120;2024-03-23T07:29:51;23.70;1.00
1055;DHT22;516;51.482;7.120;2024-03-23T07:32:17;23.70;1.00
1055;DHT22;516;51.482;7.120;2024-03-23T07:34:42;23.90;1.00
1055;DHT22;516;51.482;7.120;2024-03-23T07:37:10;24.00;1.00
1055;DHT22;516;51.482;7.120;2024-03-23T07:39:36;24.10;1.00
1055;DHT22;516;51.482;7.120;2024-03-23T07:42:02;24.20;1.00
1055;DHT22;516;51.482;7.120;2024-03-23T07:44:28;24.40;1.00
1055;DHT22;516;51.482;7.120;2024-03-23T07:46:53;24.50;1.00
1055;DHT22;516;51.482;7.120;2024-03-23T07:49:19;24.60;1.00
1055;DHT22;516;51.482;7.120;2024-03-23T07:51:45;24.70;1.00
1055;DHT22;516;51.482;7.120;2024-03-23T07:54:11;24.80;1.00
1055;DHT22;516;51.482;7.120;2024-03-23T07:56:36;24.90;1.00
1055;DHT22;516;51.482;7.120;2024-03-23T07:59:02;24.80;1.00
1055;DHT22;516;51.482;7.120;2024-03-23T08:01:31;24.70;1.00
1055;DHT22;516;51.482;7.120;2024-03-23T08:03:57;24.70;1.00
1055;DHT22;516;51.482;7.120;2024-03-23T08:06:22;24.70;1.00
1055;DHT22;516;51.482;7.120;2024-03-23T08:08:54;24.80;1.00
1055;DHT22;516;51.482;7.120;2024-03-23T08:11:26;24.70;1.00
1055;DHT22;516;51.482;7.120;2024-03-23T08:13:52;24.70;1.00
1055;DHT22;516;51.482;7.120;2024-03-23T08:16:17;24.70;1.00
1055;DHT22;516;51.482;7.120;2024-03-23T08:18:43;24.60;1.00
1055;DHT22;516;51.482;7.120;2024-03-23T08:21:09;24.50;1.00
1055;DHT22;516;51.482;7.120;2024-03-23T08:23:37;24.40;1.00
1055;DHT22;516;51.482;7.120;2024-03-23T08:26:07;24.30;1.00
1055;DHT22;516;51.482;7.120;2024-03-23T08:28:34;24.20;1.00
1055;DHT22;516;51.482;7.120;2024-03-23T08:31:10;24.20;1.00
1055;DHT22;516;51.482;7.120;2024-03-23T08:33:37;24.10;1.00
1055;DHT22;516;51.482;7.120;2024-03-23T08:36:05;24.10;1.00
1055;DHT22;516;51.482;7.120;2024-03-23T08:38:31;24.10;1.00
1055;DHT22;516;51.482;7.120;2024-03-23T08:41:07;24.10;1.00
1055;DHT22;516;51.482;7.120;2024-03-23T08:43:36;24.10;1.00
1055;DHT22;516;51.482;7.120;2024-03-23T08:46:09;24.10;1.00
1055;DHT22;516;51.482;7.120;2024-03-23T08:48:37;24.10;1.00
1055;DHT22;516;51.482;7.120;2024-03-23T08:51:04;24.10;1.00
1055;DHT22;516;51.482;7.120;2024-03-23T08:53:30;24.10;1.00
1055;DHT22;516;51.482;7.120;2024-03-23T08:55:57;24.20;1.00
1055;DHT22;516;51.482;7.120;2024-03-23T08:58:25;24.10;1.00
1055;DHT22;516;51.482;7.120;2024-03-23T09:00:52;24.10;1.00
1055;DHT22;516;51.482;7.120;2024-03-23T09:03:18;24.00;1.00
1055;DHT22;516;51.482;7.120;2024-03-23T09:05:44;24.00;1.00
1055;DHT22;516;51.482;7.120;2024-03-23T09:08:09;24.00;1.00
1055;DHT22;516;51.482;7.120;2024-03-23T09:10:40;24.00;1.00
1055;DHT22;516;51.482;7.120;2024-03-23T09:13:06;23.90;1.00
1055;DHT22;516;51.482;7.120;2024-03-23T09:15:36;23.80;1.00
1055;DHT22;516;51.482;7.120;2024-03-23T09:18:03;23.80;1.00
1055;DHT22;516;51.482;7.120;2024-03-23T09:20:32;23.80;1.00
1055;DHT22;516;51.482;7.120;2024-03-23T09:22:58;23.70;1.00
1055;DHT22;516;51.482;7.120;2024-03-23T09:25:24;23.70;1.00
1055;DHT22;516;51.482;7.120;2024-03-23T09:27:50;23.70;1.00
1055;DHT22;516;51.482;7.120;2024-03-23T09:30:16;23.80;1.00
1055;DHT22;516;51.482;7.120;2024-03-23T09:32:43;23.90;1.00
1055;DHT22;516;51.482;7.120;2024-03-23T09:35:09;24.00;1.00
1055;DHT22;516;51.482;7.120;2024-03-23T09:37:35;24.10;1.00
1055;DHT22;516;51.482;7.120;2024-03-23T09:40:01;24.10;1.00
1055;DHT22;516;51.482;7.120;2024-03-23T09:42:28;24.20;1.00
1055;DHT22;516;51.482;7.120;2024-03-23T09:44:54;24.30;1.00
1055;DHT22;516;51.482;7.120;2024-03-23T09:47:24;23.90;1.00
1055;DHT22;516;51.482;7.120;2024-03-23T09:49:50;23.80;1.00
1055;DHT22;516;51.482;7.120;2024-03-23T09:52:16;24.00;1.00
1055;DHT22;516;51.482;7.120;2024-03-23T09:54:42;24.10;1.00
1055;DHT22;516;51.482;7.120;2024-03-23T09:57:08;24.10;1.00
1055;DHT22;516;51.482;7.120;2024-03-23T09:59:34;24.10;1.00
1055;DHT22;516;51.482;7.120;2024-03-23T10:02:01;24.10;1.00
1055;DHT22;516;51.482;7.120;2024-03-23T10:04:40;24.10;1.00
1055;DHT22;516;51.482;7.120;2024-03-23T10:07:13;24.10;1.00
1055;DHT22;516;51.482;7.120;2024-03-23T10:09:39;24.10;1.00
1055;DHT22;516;51.482;7.120;2024-03-23T10:12:12;24.00;1.00
1055;DHT22;516;51.482;7.120;2024-03-23T10:14:42;24.10;1.00
1055;DHT22;516;51.482;7.120;2024-03-23T10:19:40;24.00;1.00
1055;DHT22;516;51.482;7.120;2024-03-23T10:22:06;24.00;1.00
1055;DHT22;516;51.482;7.120;2024-03-23T10:24:32;24.00;1.00
1055;DHT22;516;51.482;7.120;2024-03-23T10:26:58;24.00;1.00
1055;DHT22;516;51.482;7.120;2024-03-23T10:29:23;24.00;1.00
1055;DHT22;516;51.482;7.120;2024-03-23T10:31:53;24.00;1.00
1055;DHT22;516;51.482;7.120;2024-03-23T10:34:25;24.00;1.00
1055;DHT22;516;51.482;7.120;2024-03-23T10:36:53;23.90;1.00
1055;DHT22;516;51.482;7.120;2024-03-23T10:39:20;23.90;1.00
1055;DHT22;516;51.482;7.120;2024-03-23T10:41:51;23.80;1.00
1055;DHT22;516;51.482;7.120;2024-03-23T10:44:19;23.80;1.00
1055;DHT22;516;51.482;7.120;2024-03-23T10:46:45;23.90;1.00
1055;DHT22;516;51.482;7.120;2024-03-23T10:49:11;23.80;1.00
1055;DHT22;516;51.482;7.120;2024-03-23T10:51:37;23.80;1.00
1055;DHT22;516;51.482;7.120;2024-03-23T10:54:06;23.80;1.00
1055;DHT22;516;51.482;7.120;2024-03-23T10:56:34;23.70;1.00
1055;DHT22;516;51.482;7.120;2024-03-23T10:59:02;23.70;1.00
1055;DHT22;516;51.482;7.120;2024-03-23T11:01:28;23.60;1.00
1055;DHT22;516;51.482;7.120;2024-03-23T11:03:54;23.50;1.00
1055;DHT22;516;51.482;7.120;2024-03-23T11:06:37;23.50;1.00
1055;DHT22;516;51.482;7.120;2024-03-23T11:09:03;23.40;1.00
1055;DHT22;516;51.482;7.120;2024-03-23T11:11:28;23.40;1.00
1055;DHT22;516;51.482;7.120;2024-03-23T11:13:57;23.30;1.00
1055;DHT22;516;51.482;7.120;2024-03-23T11:16:24;23.30;1.00
1055;DHT22;516;51.482;7.120;2024-03-23T11:18:51;23.20;1.00
1055;DHT22;516;51.482;7.120;2024-03-23T11:21:54;23.20;1.00
1055;DHT22;516;51.482;7.120;2024-03-23T11:24:21;23.20;1.00
1055;DHT22;516;51.482;7.120;2024-03-23T11:26:48;23.30;1.00
1055;DHT22;516;51.482;7.120;2024-03-23T11:29:17;23.40;1.00
1055;DHT22;516;51.482;7.120;2024-03-23T11:31:53;23.50;1.00
1055;DHT22;516;51.482;7.120;2024-03-23T11:34:20;23.60;1.00
1055;DHT22;516;51.482;7.120;2024-03-23T11:36:46;23.70;1.00
1055;DHT22;516;51.482;7.120;2024-03-23T11:39:19;23.70;1.00
1055;DHT22;516;51.482;7.120;2024-03-23T11:41:50;23.10;1.00
1055;DHT22;516;51.482;7.120;2024-03-23T11:44:20;22.50;1.00
1055;DHT22;516;51.482;7.120;2024-03-23T11:46:46;22.30;1.00
1055;DHT22;516;51.482;7.120;2024-03-23T11:49:26;22.80;1.00
1055;DHT22;516;51.482;7.120;2024-03-23T11:51:54;23.30;1.00
1055;DHT22;516;51.482;7.120;2024-03-23T11:54:24;23.50;1.00
1055;DHT22;516;51.482;7.120;2024-03-23T11:56:57;23.70;1.00
1055;DHT22;516;51.482;7.120;2024-03-23T11:59:38;23.90;1.00
1055;DHT22;516;51.482;7.120;2024-03-23T12:02:13;24.10;1.00
1055;DHT22;516;51.482;7.120;2024-03-23T12:04:42;24.30;1.00
1055;DHT22;516;51.482;7.120;2024-03-23T12:07:18;24.40;1.00
1055;DHT22;516;51.482;7.120;2024-03-23T12:09:45;24.30;1.00
1055;DHT22;516;51.482;7.120;2024-03-23T12:12:15;24.30;1.00
1055;DHT22;516;51.482;7.120;2024-03-23T12:14:45;24.50;1.00
1055;DHT22;516;51.482;7.120;2024-03-23T12:17:15;24.20;1.00
1055;DHT22;516;51.482;7.120;2024-03-23T12:19:41;24.10;1.00
1055;DHT22;516;51.482;7.120;2024-03-23T12:22:08;24.10;1.00
1055;DHT22;516;51.482;7.120;2024-03-23T12:24:34;24.30;1.00
1055;DHT22;516;51.482;7.120;2024-03-23T12:27:04;24.40;1.00
1055;DHT22;516;51.482;7.120;2024-03-23T12:29:31;24.50;1.00
1055;DHT22;516;51.482;7.120;2024-03-23T12:32:01;24.50;1.00
1055;DHT22;516;51.482;7.120;2024-03-23T12:34:27;24.50;1.00
1055;DHT22;516;51.482;7.120;2024-03-23T12:36:54;24.70;1.00
1055;DHT22;516;51.482;7.120;2024-03-23T12:39:20;24.90;1.00
1055;DHT22;516;51.482;7.120;2024-03-23T12:41:49;25.10;1.00
1055;DHT22;516;51.482;7.120;2024-03-23T12:44:15;25.10;1.00
1055;DHT22;516;51.482;7.120;2024-03-23T12:46:41;25.10;1.00
1055;DHT22;516;51.482;7.120;2024-03-23T12:49:07;25.10;1.00
1055;DHT22;516;51.482;7.120;2024-03-23T12:51:34;25.10;1.00
1055;DHT22;516;51.482;7.120;2024-03-23T12:53:59;25.10;1.00
1055;DHT22;516;51.482;7.120;2024-03-23T12:56:25;25.10;1.00
1055;DHT22;516;51.482;7.120;2024-03-23T12:58:53;25.10;1.00
1055;DHT22;516;51.482;7.120;2024-03-23T13:01:20;25.10;1.00
1055;DHT22;516;51.482;7.120;2024-03-23T13:03:47;25.10;1.00
1055;DHT22;516;51.482;7.120;2024-03-23T13:06:13;25.00;1.00
1055;DHT22;516;51.482;7.120;2024-03-23T13:08:39;24.90;1.00
1055;DHT22;516;51.482;7.120;2024-03-23T13:11:09;24.90;1.00
1055;DHT22;516;51.482;7.120;2024-03-23T13:13:39;24.80;1.00
1055;DHT22;516;51.482;7.120;2024-03-23T13:16:05;24.90;1.00
1055;DHT22;516;51.482;7.120;2024-03-23T13:18:31;24.80;1.00
1055;DHT22;516;51.482;7.120;2024-03-23T13:20:58;24.70;1.00
1055;DHT22;516;51.482;7.120;2024-03-23T13:23:24;24.70;1.00
1055;DHT22;516;51.482;7.120;2024-03-23T13:25:55;24.70;1.00
1055;DHT22;516;51.482;7.120;2024-03-23T13:28:22;24.70;1.00
1055;DHT22;516;51.482;7.120;2024-03-23T13:30:55;24.70;1.00
1055;DHT22;516;51.482;7.120;2024-03-23T13:33:21;24.70;1.00
1055;DHT22;516;51.482;7.120;2024-03-23T13:35:54;24.80;1.00
1055;DHT22;516;51.482;7.120;2024-03-23T13:38:23;24.80;1.00
1055;DHT22;516;51.482;7.120;2024-03-23T13:40:57;24.80;1.00
1055;DHT22;516;51.482;7.120;2024-03-23T13:43:23;24.70;1.00
1055;DHT22;516;51.482;7.120;2024-03-23T13:45:53;24.70;1.00
1055;DHT22;516;51.482;7.120;2024-03-23T13:48:24;24.60;1.00
1055;DHT22;516;51.482;7.120;2024-03-23T13:51:03;24.80;1.00
1055;DHT22;516;51.482;7.120;2024-03-23T13:53:29;24.90;1.00
1055;DHT22;516;51.482;7.120;2024-03-23T13:55:55;24.80;1.00
1055;DHT22;516;51.482;7.120;2024-03-23T13:58:21;24.90;1.00
1055;DHT22;516;51.482;7.120;2024-03-23T14:00:49;24.80;1.00
1055;DHT22;516;51.482;7.120;2024-03-23T14:03:15;24.80;1.00
1055;DHT22;516;51.482;7.120;2024-03-23T14:05:41;24.90;1.00
1055;DHT22;516;51.482;7.120;2024-03-23T14:08:07;24.90;1.00
1055;DHT22;516;51.482;7.120;2024-03-23T14:10:33;24.90;1.00
1055;DHT22;516;51.482;7.120;2024-03-23T14:12:59;24.80;1.00
1055;DHT22;516;51.482;7.120;2024-03-23T14:15:29;24.70;1.00
1055;DHT22;516;51.482;7.120;2024-03-23T14:17:55;24.70;1.00
1055;DHT22;516;51.482;7.120;2024-03-23T14:20:22;24.60;1.00
1055;DHT22;516;51.482;7.120;2024-03-23T14:22:51;24.50;1.00
1055;DHT22;516;51.482;7.120;2024-03-23T14:25:17;24.60;1.00
1055;DHT22;516;51.482;7.120;2024-03-23T14:27:46;24.70;1.00
1055;DHT22;516;51.482;7.120;2024-03-23T14:30:12;24.70;1.00
1055;DHT22;516;51.482;7.120;2024-03-23T14:32:39;24.60;1.00
1055;DHT22;516;51.482;7.120;2024-03-23T14:35:06;24.60;1.00
1055;DHT22;516;51.482;7.120;2024-03-23T14:37:39;24.60;1.00
1055;DHT22;516;51.482;7.120;2024-03-23T14:40:07;24.70;1.00
1055;DHT22;516;51.482;7.120;2024-03-23T14:42:33;24.80;1.00
1055;DHT22;516;51.482;7.120;2024-03-23T14:44:59;24.90;1.00
1055;DHT22;516;51.482;7.120;2024-03-23T14:47:25;24.90;1.00
1055;DHT22;516;51.482;7.120;2024-03-23T14:49:50;24.80;1.00
1055;DHT22;516;51.482;7.120;2024-03-23T14:52:17;24.90;1.00
1055;DHT22;516;51.482;7.120;2024-03-23T14:54:44;24.90;1.00
1055;DHT22;516;51.482;7.120;2024-03-23T14:57:09;25.10;1.00
1055;DHT22;516;51.482;7.120;2024-03-23T14:59:36;25.40;1.00
1055;DHT22;516;51.482;7.120;2024-03-23T15:02:04;25.40;1.00
1055;DHT22;516;51.482;7.120;2024-03-23T15:04:30;25.30;1.00
1055;DHT22;516;51.482;7.120;2024-03-23T15:06:55;25.20;1.00
1055;DHT22;516;51.482;7.120;2024-03-23T15:09:21;25.10;1.00
1055;DHT22;516;51.482;7.120;2024-03-23T15:11:47;24.80;1.00
1055;DHT22;516;51.482;7.120;2024-03-23T15:14:13;24.70;1.00
1055;DHT22;516;51.482;7.120;2024-03-23T15:16:39;24.50;1.00
1055;DHT22;516;51.482;7.120;2024-03-23T15:19:04;24.30;1.00
1055;DHT22;516;51.482;7.120;2024-03-23T15:21:32;24.10;1.00
1055;DHT22;516;51.482;7.120;2024-03-23T15:23:57;24.00;1.00
1055;DHT22;516;51.482;7.120;2024-03-23T15:26:23;23.90;1.00
1055;DHT22;516;51.482;7.120;2024-03-23T15:28:49;23.80;1.00
1055;DHT22;516;51.482;7.120;2024-03-23T15:31:24;23.80;1.00
1055;DHT22;516;51.482;7.120;2024-03-23T15:33:51;23.80;1.00
1055;DHT22;516;51.482;7.120;2024-03-23T15:36:17;23.70;1.00
1055;DHT22;516;51.482;7.120;2024-03-23T15:38:43;23.70;1.00
1055;DHT22;516;51.482;7.120;2024-03-23T15:41:09;23.70;1.00
1055;DHT22;516;51.482;7.120;2024-03-23T15:43:35;23.60;1.00
1055;DHT22;516;51.482;7.120;2024-03-23T15:46:03;23.60;1.00
1055;DHT22;516;51.482;7.120;2024-03-23T15:48:30;23.60;1.00
1055;DHT22;516;51.482;7.120;2024-03-23T15:50:58;23.60;1.00
1055;DHT22;516;51.482;7.120;2024-03-23T15:53:24;23.50;1.00
1055;DHT22;516;51.482;7.120;2024-03-23T15:55:57;23.50;1.00
1055;DHT22;516;51.482;7.120;2024-03-23T15:58:23;23.40;1.00
1055;DHT22;516;51.482;7.120;2024-03-23T16:03:22;23.40;1.00
1055;DHT22;516;51.482;7.120;2024-03-23T16:05:55;23.40;1.00
1055;DHT22;516;51.482;7.120;2024-03-23T16:08:21;23.40;1.00
1055;DHT22;516;51.482;7.120;2024-03-23T16:10:47;23.30;1.00
1055;DHT22;516;51.482;7.120;2024-03-23T16:13:14;23.20;1.00
1055;DHT22;516;51.482;7.120;2024-03-23T16:15:40;23.20;1.00
1055;DHT22;516;51.482;7.120;2024-03-23T16:18:06;23.20;1.00
1055;DHT22;516;51.482;7.120;2024-03-23T16:20:32;23.10;1.00
1055;DHT22;516;51.482;7.120;2024-03-23T16:23:01;23.10;1.00
1055;DHT22;516;51.482;7.120;2024-03-23T16:25:27;23.10;1.00
1055;DHT22;516;51.482;7.120;2024-03-23T16:27:53;23.00;1.00
1055;DHT22;516;51.482;7.120;2024-03-23T16:30:19;23.00;1.00
1055;DHT22;516;51.482;7.120;2024-03-23T16:32:48;23.00;1.00
1055;DHT22;516;51.482;7.120;2024-03-23T16:35:15;23.00;1.00
1055;DHT22;516;51.482;7.120;2024-03-23T16:37:41;23.00;1.00
1055;DHT22;516;51.482;7.120;2024-03-23T16:40:07;23.00;1.00
1055;DHT22;516;51.482;7.120;2024-03-23T16:42:35;23.00;1.00
1055;DHT22;516;51.482;7.120;2024-03-23T16:45:01;23.00;1.00
1055;DHT22;516;51.482;7.120;2024-03-23T16:47:28;23.00;1.00
1055;DHT22;516;51.482;7.120;2024-03-23T16:49:53;23.20;1.00
1055;DHT22;516;51.482;7.120;2024-03-23T16:52:19;23.40;1.00
1055;DHT22;516;51.482;7.120;2024-03-23T16:54:45;23.50;1.00
1055;DHT22;516;51.482;7.120;2024-03-23T16:57:11;23.70;1.00
1055;DHT22;516;51.482;7.120;2024-03-23T16:59:36;23.80;1.00
1055;DHT22;516;51.482;7.120;2024-03-23T17:02:02;23.90;1.00
1055;DHT22;516;51.482;7.120;2024-03-23T17:04:28;24.00;1.00
1055;DHT22;516;51.482;7.120;2024-03-23T17:06:54;24.10;1.00
1055;DHT22;516;51.482;7.120;2024-03-23T17:09:20;24.30;1.00
1055;DHT22;516;51.482;7.120;2024-03-23T17:11:46;24.30;1.00
1055;DHT22;516;51.482;7.120;2024-03-23T17:14:12;24.30;1.00
1055;DHT22;516;51.482;7.120;2024-03-23T17:16:41;24.30;1.00
1055;DHT22;516;51.482;7.120;2024-03-23T17:19:07;24.50;1.00
1055;DHT22;516;51.482;7.120;2024-03-23T17:21:34;24.60;1.00
1055;DHT22;516;51.482;7.120;2024-03-23T17:24:00;24.50;1.00
1055;DHT22;516;51.482;7.120;2024-03-23T17:26:26;24.50;1.00
1055;DHT22;516;51.482;7.120;2024-03-23T17:28:52;24.50;1.00